Uniontown, Ohio
Current Conditions -  °F | °C
As of 3:51 PM on Tuesday 25 Nov 2014 (Local Time) from KCAK Reporting Station
Overcast Overcast  
Wind Chill: 30°   Ceiling: 3200
Heat Index: 37°   Visibility: 10mi
Dew Point: 24°   Wind: 10mph
Humidity: 59%   Direction: 260°W
Pressure: 30.08"   Gusts: 21mph
Location:  40.98°N, 81.41°W
Report Text: KCAK 252051Z 26009G18KT 10SM OVC032 03/M04 A3008 RMK AO2 SLP197 T00281044 53017 $
Loading
Personal Weather Stations






























Interactive Weather Map New forecast layout! Learn more

10-Day Weather Forecast

Advertisements
Track Severe Weather on mobile